Time;durP1;ratioP1;P1;durP2;ratioP2;P2;SDS_P1;SDS_P2;PMS_P1;PMS_P2;Temp;Humidity;BMP_temperature;BMP_pressure;BME280_temperature;BME280_humidity;BME280_pressure;Samples;Min_cycle;Max_cycle;Signal;HPM_P1;HPM_P2
2021/12/31 00:02:20;;;;;;;3.67;1.55;;;13.50;60.40;;;;;;5147052;27;34169;-77
2021/12/31 00:04:46;;;;;;;4.57;1.40;;;13.50;60.40;;;;;;5128632;27;34353;-77
2021/12/31 00:07:13;;;;;;;3.78;1.55;;;13.40;60.30;;;;;;5119483;27;34268;-77
2021/12/31 00:09:39;;;;;;;4.30;1.38;;;13.50;60.40;;;;;;5146881;27;34453;-77
2021/12/31 00:12:07;;;;;;;5.47;1.52;;;13.40;60.40;;;;;;5146069;27;34210;-77
2021/12/31 00:14:35;;;;;;;3.08;1.48;;;13.40;60.40;;;;;;5146554;27;34465;-77
2021/12/31 00:17:01;;;;;;;2.92;1.40;;;13.40;60.40;;;;;;5162429;27;34566;-77
2021/12/31 00:19:30;;;;;;;4.10;1.65;;;13.30;60.50;;;;;;5162560;27;36033;-78
2021/12/31 00:21:58;;;;;;;4.03;1.50;;;13.40;60.50;;;;;;5162388;27;34213;-77
2021/12/31 00:24:26;;;;;;;3.05;1.27;;;13.40;60.60;;;;;;5163239;27;34116;-77
2021/12/31 00:26:52;;;;;;;4.22;1.40;;;13.40;60.50;;;;;;5129189;27;34314;-77
2021/12/31 00:29:18;;;;;;;5.18;1.30;;;13.40;60.50;;;;;;5162190;27;35950;-77
2021/12/31 00:31:44;;;;;;;4.78;1.40;;;13.40;60.40;;;;;;5163355;27;34264;-77
2021/12/31 00:34:10;;;;;;;4.82;1.42;;;13.40;60.60;;;;;;5162618;27;34072;-77
2021/12/31 00:36:45;;;;;;;4.22;1.60;;;13.40;60.60;;;;;;5162828;27;34114;-77
2021/12/31 00:39:14;;;;;;;2.97;1.65;;;13.40;60.50;;;;;;5162082;27;36429;-77
2021/12/31 00:41:41;;;;;;;4.40;1.70;;;13.40;60.50;;;;;;5145069;27;34337;-77
2021/12/31 00:44:07;;;;;;;3.03;1.60;;;13.40;60.60;;;;;;5127078;27;34038;-77
2021/12/31 00:46:33;;;;;;;1.85;1.45;;;13.40;60.60;;;;;;5088318;27;34300;-77
2021/12/31 00:49:02;;;;;;;2.97;1.33;;;13.40;60.60;;;;;;5118243;27;36676;-77
2021/12/31 00:51:28;;;;;;;3.05;1.50;;;13.40;60.50;;;;;;5145808;27;34315;-77
2021/12/31 00:53:54;;;;;;;2.40;1.50;;;13.30;60.60;;;;;;5127855;27;34298;-77
2021/12/31 00:56:20;;;;;;;3.83;1.50;;;13.40;60.60;;;;;;5126825;27;34367;-77
2021/12/31 00:58:47;;;;;;;3.75;1.42;;;13.40;60.60;;;;;;5161182;27;35690;-77
2021/12/31 01:01:19;;;;;;;3.15;1.40;;;13.40;60.60;;;;;;5092503;27;34155;-77
2021/12/31 01:03:45;;;;;;;2.03;1.33;;;13.40;60.50;;;;;;5109989;27;34349;-77
2021/12/31 01:06:11;;;;;;;1.90;1.17;;;13.40;60.50;;;;;;5126455;27;34211;-77
2021/12/31 01:08:38;;;;;;;3.55;1.50;;;13.40;60.60;;;;;;5126940;27;35839;-77
2021/12/31 01:11:04;;;;;;;3.33;1.88;;;13.40;60.60;;;;;;5145162;27;34209;-77
2021/12/31 01:16:11;;;;;;;2.38;1.42;;;13.40;61.40;;;;;;5145544;27;34192;-77
2021/12/31 01:21:20;;;;;;;4.15;1.52;;;13.40;60.60;;;;;;5145090;27;34262;-77
2021/12/31 01:23:48;;;;;;;3.40;1.23;;;13.40;60.60;;;;;;5126605;27;34299;-77
2021/12/31 01:26:14;;;;;;;3.33;2.00;;;13.40;60.60;;;;;;5108922;27;34116;-77
2021/12/31 01:28:40;;;;;;;4.82;1.42;;;13.40;60.60;;;;;;5108452;27;36808;-77
2021/12/31 01:31:07;;;;;;;3.80;1.50;;;13.40;60.60;;;;;;5123410;27;34079;-77
2021/12/31 01:33:33;;;;;;;4.13;1.58;;;13.30;60.60;;;;;;5127087;27;34124;-77
2021/12/31 01:35:59;;;;;;;3.97;1.92;;;13.30;60.70;;;;;;5126738;27;34148;-77
2021/12/31 01:38:25;;;;;;;4.88;1.77;;;13.40;60.70;;;;;;5126647;27;36523;-77
2021/12/31 01:40:52;;;;;;;4.78;1.60;;;13.40;60.70;;;;;;5138909;27;34332;-77
2021/12/31 01:43:19;;;;;;;5.68;2.10;;;13.40;60.70;;;;;;5147781;27;34281;-77
2021/12/31 01:45:54;;;;;;;6.15;1.70;;;13.40;60.80;;;;;;5059898;28;34070;-77
2021/12/31 01:48:23;;;;;;;5.47;1.75;;;13.40;60.80;;;;;;5129032;27;36120;-77
2021/12/31 01:50:50;;;;;;;4.47;1.70;;;13.40;60.80;;;;;;5129522;27;34166;-77
2021/12/31 01:53:17;;;;;;;5.50;2.00;;;13.40;60.80;;;;;;5128234;27;34337;-77
2021/12/31 01:55:44;;;;;;;4.93;1.83;;;13.40;60.80;;;;;;5130489;27;34430;-77
2021/12/31 01:58:12;;;;;;;5.75;1.92;;;13.40;60.80;;;;;;5132261;27;35751;-77
2021/12/31 02:00:39;;;;;;;3.75;2.05;;;13.40;60.70;;;;;;5115920;27;34400;-77
2021/12/31 02:03:06;;;;;;;3.78;1.60;;;13.40;60.70;;;;;;5132753;27;34468;-77
2021/12/31 02:05:32;;;;;;;8.13;2.08;;;13.40;60.70;;;;;;5150173;27;34428;-77
2021/12/31 02:07:59;;;;;;;5.90;1.73;;;13.40;60.70;;;;;;5131312;27;35837;-77
2021/12/31 02:10:26;;;;;;;4.40;1.52;;;13.40;60.70;;;;;;5132454;27;34281;-77
2021/12/31 02:12:53;;;;;;;3.95;1.67;;;13.40;60.70;;;;;;5131801;27;34158;-77
2021/12/31 02:15:20;;;;;;;3.60;1.58;;;13.40;60.80;;;;;;5150308;27;34382;-77
2021/12/31 02:17:48;;;;;;;5.65;1.90;;;13.40;60.80;;;;;;5132557;27;35619;-77
2021/12/31 02:20:17;;;;;;;4.47;1.80;;;13.40;60.80;;;;;;5115313;27;34184;-77
2021/12/31 02:22:51;;;;;;;4.60;1.70;;;13.40;60.90;;;;;;5132964;27;34305;-77
2021/12/31 02:25:19;;;;;;;3.20;1.50;;;13.40;60.80;;;;;;5132648;27;34067;-77
2021/12/31 02:27:45;;;;;;;4.50;1.60;;;13.30;60.80;;;;;;5132578;27;35781;-77
2021/12/31 02:30:12;;;;;;;4.38;1.70;;;13.40;60.80;;;;;;5131860;27;34378;-77
2021/12/31 02:32:38;;;;;;;4.38;1.73;;;13.40;60.80;;;;;;5132947;27;34258;-77
2021/12/31 02:35:06;;;;;;;5.32;1.55;;;13.30;60.80;;;;;;5149867;27;34552;-77
2021/12/31 02:37:32;;;;;;;7.82;1.77;;;13.30;60.80;;;;;;5062030;28;34964;-77
2021/12/31 02:40:04;;;;;;;6.18;1.52;;;13.30;60.90;;;;;;5139492;27;34154;-77
2021/12/31 02:42:30;;;;;;;3.28;1.45;;;13.30;60.90;;;;;;5150096;27;34218;-77
2021/12/31 02:44:56;;;;;;;3.55;1.48;;;13.30;60.90;;;;;;5149432;27;34345;-77
2021/12/31 02:47:23;;;;;;;4.60;1.77;;;13.30;61.00;;;;;;5149681;27;36285;-77
2021/12/31 02:49:49;;;;;;;4.30;1.45;;;13.30;61.00;;;;;;5149694;27;34285;-77
2021/12/31 02:52:16;;;;;;;3.50;1.80;;;13.30;61.00;;;;;;5169190;27;34193;-77
2021/12/31 02:54:46;;;;;;;3.15;1.90;;;13.30;61.00;;;;;;5150256;27;34540;-77
2021/12/31 02:57:13;;;;;;;7.07;1.70;;;13.30;61.00;;;;;;5149967;27;34549;-77
2021/12/31 02:59:40;;;;;;;3.28;1.42;;;13.30;61.00;;;;;;5168720;27;34403;-78
2021/12/31 03:02:07;;;;;;;4.30;1.65;;;13.30;61.00;;;;;;5149418;27;34435;-77
2021/12/31 03:04:36;;;;;;;2.97;1.60;;;13.30;61.00;;;;;;5149897;27;34212;-77
2021/12/31 03:07:04;;;;;;;4.57;1.35;;;13.30;61.10;;;;;;5148207;27;35730;-77
2021/12/31 03:09:32;;;;;;;3.83;2.03;;;13.20;61.00;;;;;;5131961;27;34107;-77
2021/12/31 03:12:00;;;;;;;4.18;1.92;;;13.20;60.90;;;;;;5150328;27;34269;-77
2021/12/31 03:14:29;;;;;;;2.72;1.67;;;13.20;61.00;;;;;;5149706;27;34165;-77
2021/12/31 03:16:55;;;;;;;3.72;1.58;;;13.20;61.00;;;;;;5148715;27;36491;-77
2021/12/31 03:19:21;;;;;;;2.67;1.70;;;13.20;61.00;;;;;;5168019;27;34419;-77
2021/12/31 03:21:48;;;;;;;3.70;1.75;;;13.20;61.00;;;;;;5131889;27;34179;-77
2021/12/31 03:24:14;;;;;;;3.22;2.00;;;13.20;61.00;;;;;;5184693;27;34057;-77
2021/12/31 03:26:40;;;;;;;4.00;2.25;;;13.20;61.00;;;;;;5148523;27;36474;-77
2021/12/31 03:29:06;;;;;;;3.28;2.05;;;13.20;61.00;;;;;;5147728;27;34145;-77
2021/12/31 03:31:32;;;;;;;6.30;2.17;;;13.20;61.10;;;;;;5148429;27;34367;-76
2021/12/31 03:33:58;;;;;;;9.32;2.70;;;13.30;61.30;;;;;;5148421;27;34236;-77
2021/12/31 03:36:25;;;;;;;5.45;2.10;;;13.30;61.20;;;;;;5166518;27;34289;-77
2021/12/31 03:38:51;;;;;;;3.88;2.20;;;13.30;61.20;;;;;;5130907;27;34414;-77
2021/12/31 03:41:17;;;;;;;5.88;2.35;;;13.30;61.20;;;;;;5148938;27;34295;-77
2021/12/31 03:43:49;;;;;;;4.95;2.22;;;13.30;62.00;;;;;;5149038;27;34075;-77
2021/12/31 03:46:15;;;;;;;4.25;2.03;;;13.30;61.20;;;;;;5130752;27;35731;-76
2021/12/31 03:48:41;;;;;;;4.72;2.30;;;13.30;61.10;;;;;;5166326;27;34118;-76
2021/12/31 03:51:07;;;;;;;4.40;1.85;;;13.30;61.00;;;;;;5147536;27;34402;-76
2021/12/31 03:53:33;;;;;;;3.83;1.90;;;13.30;61.00;;;;;;5148924;27;34281;-76
2021/12/31 03:55:59;;;;;;;4.63;1.85;;;13.30;61.00;;;;;;5147758;27;36309;-77
2021/12/31 03:58:25;;;;;;;5.72;2.30;;;13.30;61.00;;;;;;5131174;27;34302;-76
2021/12/31 04:00:51;;;;;;;8.20;2.17;;;13.30;60.90;;;;;;5147865;27;34342;-76
2021/12/31 04:03:18;;;;;;;5.82;2.60;;;13.30;60.80;;;;;;5166806;27;34128;-76
2021/12/31 04:05:44;;;;;;;7.35;2.05;;;13.20;60.80;;;;;;5182511;27;35490;-77
2021/12/31 04:08:11;;;;;;;5.47;2.13;;;13.20;60.80;;;;;;5147923;27;34095;-77
2021/12/31 04:10:37;;;;;;;4.95;2.10;;;13.20;60.80;;;;;;5148012;27;34164;-77
2021/12/31 04:13:03;;;;;;;4.63;2.08;;;13.20;60.80;;;;;;5148605;27;34121;-76
2021/12/31 04:15:29;;;;;;;6.25;2.55;;;13.10;60.90;;;;;;5149056;27;35787;-77
2021/12/31 04:17:55;;;;;;;4.05;2.00;;;13.10;60.90;;;;;;5147482;27;34303;-77
2021/12/31 04:20:33;;;;;;;3.92;2.28;;;13.20;60.80;;;;;;5148094;27;34774;-77
2021/12/31 04:23:03;;;;;;;6.15;2.50;;;13.20;60.70;;;;;;5166942;27;34451;-77
2021/12/31 04:25:29;;;;;;;2.78;2.00;;;13.20;60.70;;;;;;5147461;27;36483;-77
2021/12/31 04:27:55;;;;;;;5.57;1.73;;;13.20;60.70;;;;;;5147430;27;34159;-76
2021/12/31 04:30:21;;;;;;;3.95;2.03;;;13.10;60.70;;;;;;5148085;27;34193;-77
2021/12/31 04:32:47;;;;;;;5.45;2.40;;;13.10;60.60;;;;;;5148401;27;34084;-77
2021/12/31 04:35:13;;;;;;;5.35;2.30;;;13.20;60.60;;;;;;5104184;27;36368;-77
2021/12/31 04:37:42;;;;;;;4.45;1.98;;;13.10;60.60;;;;;;5130089;27;34391;-77
2021/12/31 04:40:10;;;;;;;4.20;1.90;;;13.10;60.60;;;;;;5161916;27;34314;-77
2021/12/31 04:42:38;;;;;;;4.00;2.08;;;13.10;60.60;;;;;;5165397;27;34399;-77
2021/12/31 04:45:05;;;;;;;2.80;1.75;;;13.10;60.50;;;;;;5148376;27;34582;-77
2021/12/31 04:47:31;;;;;;;4.68;1.90;;;13.10;60.40;;;;;;5147593;27;34150;-77
2021/12/31 04:49:57;;;;;;;3.33;2.03;;;13.10;60.40;;;;;;5165386;27;34151;-77
2021/12/31 04:52:23;;;;;;;1.88;1.60;;;13.10;60.50;;;;;;5165917;27;34485;-77
2021/12/31 04:54:49;;;;;;;5.55;2.03;;;13.10;60.50;;;;;;5166245;27;34913;-77
2021/12/31 04:57:15;;;;;;;3.65;1.52;;;13.00;60.30;;;;;;5167260;27;34177;-77
2021/12/31 04:59:41;;;;;;;5.28;1.90;;;13.00;60.30;;;;;;5131028;27;34229;-77
2021/12/31 05:02:07;;;;;;;2.92;1.95;;;13.00;60.40;;;;;;5165621;27;34403;-77
2021/12/31 05:04:33;;;;;;;4.47;1.70;;;12.90;60.30;;;;;;5147582;27;35615;-77
2021/12/31 05:06:59;;;;;;;1.90;1.60;;;12.90;60.40;;;;;;5147524;27;34267;-77
2021/12/31 05:09:25;;;;;;;2.50;1.63;;;12.90;60.40;;;;;;5147868;27;34341;-77
2021/12/31 05:11:51;;;;;;;2.30;1.50;;;12.90;60.40;;;;;;5166036;27;34082;-77
2021/12/31 05:14:18;;;;;;;2.65;1.50;;;12.80;60.30;;;;;;5166237;27;34186;-77
2021/12/31 05:16:44;;;;;;;4.55;1.58;;;12.80;60.30;;;;;;5147562;27;34055;-77
2021/12/31 05:19:10;;;;;;;2.72;1.90;;;12.80;60.30;;;;;;5165409;27;34020;-77
2021/12/31 05:21:36;;;;;;;2.88;1.75;;;12.80;60.40;;;;;;5147409;27;34094;-77
2021/12/31 05:24:02;;;;;;;4.05;1.70;;;12.70;60.50;;;;;;5146321;27;36755;-77
2021/12/31 05:26:29;;;;;;;5.78;1.80;;;12.70;60.50;;;;;;5146701;27;34376;-77
2021/12/31 05:28:55;;;;;;;6.55;2.28;;;12.70;60.50;;;;;;5166138;27;34214;-77
2021/12/31 05:31:21;;;;;;;4.47;1.95;;;12.60;60.40;;;;;;5148904;27;34167;-77
2021/12/31 05:33:47;;;;;;;3.28;1.98;;;12.70;60.50;;;;;;5168599;27;34154;-77
2021/12/31 05:36:13;;;;;;;4.40;1.73;;;12.70;60.50;;;;;;5150814;27;34263;-77
2021/12/31 05:38:40;;;;;;;5.97;1.92;;;12.70;60.50;;;;;;5169943;27;33635;-76
2021/12/31 05:41:07;;;;;;;5.35;1.90;;;12.70;60.50;;;;;;5149853;27;34495;-77
2021/12/31 05:43:33;;;;;;;2.70;1.60;;;12.70;60.40;;;;;;5150754;27;35766;-77
2021/12/31 05:45:59;;;;;;;4.00;1.83;;;12.80;60.30;;;;;;5186095;27;34222;-77
2021/12/31 05:48:25;;;;;;;3.17;1.60;;;12.80;60.20;;;;;;5169354;27;34289;-76
2021/12/31 05:50:52;;;;;;;2.85;1.75;;;12.80;60.10;;;;;;5150565;27;34485;-76
2021/12/31 05:53:19;;;;;;;4.30;1.92;;;12.80;60.10;;;;;;5149986;27;35897;-76
2021/12/31 05:55:45;;;;;;;3.85;2.00;;;12.80;60.10;;;;;;5150411;27;34169;-76
2021/12/31 05:58:11;;;;;;;3.47;1.80;;;12.80;60.00;;;;;;5150533;27;34220;-76
2021/12/31 06:00:37;;;;;;;5.80;2.28;;;12.80;60.00;;;;;;5149895;27;34152;-76
2021/12/31 06:03:03;;;;;;;4.22;2.08;;;12.80;60.00;;;;;;5169541;27;34463;-77
2021/12/31 06:05:29;;;;;;;2.40;2.03;;;12.80;60.00;;;;;;5150583;27;34319;-77
2021/12/31 06:07:57;;;;;;;3.45;2.00;;;12.80;60.00;;;;;;5150934;27;34268;-77
2021/12/31 06:10:24;;;;;;;4.72;1.85;;;12.80;60.00;;;;;;5150450;27;34434;-77
2021/12/31 06:12:52;;;;;;;3.88;1.90;;;12.80;60.00;;;;;;5168065;27;34973;-76
2021/12/31 06:15:20;;;;;;;3.58;1.85;;;12.80;59.90;;;;;;5149665;27;34141;-76
2021/12/31 06:17:46;;;;;;;2.92;1.73;;;12.80;59.90;;;;;;5168640;27;34415;-76
2021/12/31 06:20:12;;;;;;;3.90;2.28;;;12.80;59.90;;;;;;5149600;27;34486;-76
2021/12/31 06:22:38;;;;;;;3.88;2.30;;;12.80;59.90;;;;;;5126645;27;35507;-76
2021/12/31 06:25:05;;;;;;;4.72;2.60;;;12.70;60.00;;;;;;5143023;27;34121;-76
2021/12/31 06:27:31;;;;;;;3.30;2.40;;;12.70;60.00;;;;;;5149927;27;34334;-77
2021/12/31 06:29:57;;;;;;;4.93;2.85;;;12.80;60.00;;;;;;5167131;27;34112;-76
2021/12/31 06:32:23;;;;;;;5.47;3.13;;;12.70;60.00;;;;;;5131975;27;36309;-76
2021/12/31 06:34:49;;;;;;;4.55;2.95;;;12.70;60.00;;;;;;5149301;27;34284;-76
2021/12/31 06:37:15;;;;;;;3.92;2.58;;;12.70;60.00;;;;;;5168252;27;34280;-76
2021/12/31 06:39:44;;;;;;;7.13;3.20;;;12.70;60.10;;;;;;5149252;27;34194;-77
2021/12/31 06:42:10;;;;;;;5.32;3.28;;;12.70;60.00;;;;;;5166708;27;35175;-76
2021/12/31 06:44:37;;;;;;;6.15;3.50;;;12.70;60.00;;;;;;5150024;27;34351;-76
2021/12/31 06:47:04;;;;;;;6.03;3.33;;;12.60;60.00;;;;;;5167136;27;34813;-76
2021/12/31 06:49:30;;;;;;;6.68;3.75;;;12.60;59.90;;;;;;5166923;27;34117;-76
2021/12/31 06:51:56;;;;;;;7.10;3.83;;;12.60;60.00;;;;;;5148583;27;35602;-76
2021/12/31 06:54:22;;;;;;;9.85;4.13;;;12.60;60.00;;;;;;5166544;27;34254;-76
2021/12/31 06:56:49;;;;;;;10.85;5.32;;;12.60;59.90;;;;;;5148678;27;34111;-77
2021/12/31 06:59:15;;;;;;;7.32;4.70;;;12.50;59.90;;;;;;5184474;27;34205;-76
2021/12/31 07:01:41;;;;;;;6.78;4.28;;;12.50;60.00;;;;;;5168584;27;34323;-76
2021/12/31 07:04:07;;;;;;;6.82;3.95;;;12.50;60.00;;;;;;5149721;27;34298;-77
2021/12/31 07:06:33;;;;;;;4.55;3.63;;;12.50;60.00;;;;;;5150413;27;34358;-76
2021/12/31 07:08:59;;;;;;;8.18;3.85;;;12.40;60.00;;;;;;5150428;27;34048;-76
2021/12/31 07:11:25;;;;;;;6.85;3.58;;;12.40;60.90;;;;;;5150133;27;35899;-76
2021/12/31 07:13:51;;;;;;;6.55;3.65;;;12.30;60.00;;;;;;5132824;27;34169;-76
2021/12/31 07:16:18;;;;;;;5.18;3.70;;;12.30;60.00;;;;;;5133264;27;34551;-76
2021/12/31 07:18:45;;;;;;;4.82;3.50;;;12.30;60.10;;;;;;5169111;27;34219;-76
2021/12/31 07:21:11;;;;;;;7.20;3.45;;;12.30;60.10;;;;;;5149064;27;36681;-77
2021/12/31 07:23:37;;;;;;;6.07;3.17;;;12.20;60.00;;;;;;5169315;27;34231;-76
2021/12/31 07:26:03;;;;;;;6.55;3.53;;;12.20;60.10;;;;;;5149674;27;34121;-76
2021/12/31 07:28:29;;;;;;;6.45;3.65;;;12.20;60.10;;;;;;5150524;27;34409;-76
2021/12/31 07:30:55;;;;;;;5.88;3.40;;;12.20;60.10;;;;;;5166958;27;35812;-76
2021/12/31 07:36:09;;;;;;;8.98;4.40;;;12.20;60.00;;;;;;5168657;27;34289;-76
2021/12/31 07:38:38;;;;;;;5.65;3.60;;;12.10;60.10;;;;;;5150065;27;34154;-76
2021/12/31 07:41:05;;;;;;;8.80;4.20;;;12.10;60.20;;;;;;5149477;27;36949;-76
2021/12/31 07:43:32;;;;;;;7.70;3.80;;;12.20;60.20;;;;;;5168355;27;34142;-76
2021/12/31 07:45:59;;;;;;;7.30;4.35;;;12.20;60.20;;;;;;5148582;27;34159;-76
2021/12/31 07:48:25;;;;;;;6.75;3.92;;;12.20;60.10;;;;;;5149411;27;34534;-76
2021/12/31 07:50:53;;;;;;;7.10;4.47;;;12.20;60.20;;;;;;5149077;27;36518;-76
2021/12/31 07:53:19;;;;;;;7.63;4.53;;;12.20;60.10;;;;;;5148322;27;34204;-76
2021/12/31 07:55:45;;;;;;;8.75;4.35;;;12.20;60.10;;;;;;5149914;27;34551;-76
2021/12/31 07:58:11;;;;;;;8.02;5.00;;;12.20;60.10;;;;;;5149322;27;34558;-76
2021/12/31 08:00:37;;;;;;;7.53;4.03;;;12.20;60.10;;;;;;5167800;27;34270;-76
2021/12/31 08:03:04;;;;;;;7.20;4.57;;;12.20;60.10;;;;;;5166538;27;34398;-76
2021/12/31 08:05:32;;;;;;;9.95;4.93;;;12.20;60.10;;;;;;5149155;27;34287;-76
2021/12/31 08:08:00;;;;;;;7.18;4.93;;;12.30;60.00;;;;;;5147459;27;33941;-76
2021/12/31 08:10:26;;;;;;;5.70;4.32;;;12.30;60.00;;;;;;5182837;27;35571;-76
2021/12/31 08:12:52;;;;;;;7.75;4.32;;;12.30;59.90;;;;;;5130345;27;34244;-76
2021/12/31 08:15:18;;;;;;;6.50;4.65;;;12.30;59.80;;;;;;5147434;27;34319;-76
2021/12/31 08:17:44;;;;;;;7.78;4.00;;;12.30;59.80;;;;;;5165468;27;34587;-76
2021/12/31 08:20:11;;;;;;;7.35;3.90;;;12.30;59.70;;;;;;5147798;27;35605;-76
2021/12/31 08:22:37;;;;;;;6.07;3.80;;;12.30;59.70;;;;;;5147538;27;34343;-76
2021/12/31 08:25:04;;;;;;;8.20;3.97;;;12.30;59.70;;;;;;5182470;27;34222;-76
2021/12/31 08:27:30;;;;;;;7.90;3.80;;;12.30;59.70;;;;;;5130370;27;34232;-76
2021/12/31 08:29:56;;;;;;;5.45;3.55;;;12.30;59.70;;;;;;5165245;27;35498;-76
2021/12/31 08:32:22;;;;;;;12.50;3.78;;;12.30;59.60;;;;;;5147311;27;34476;-76
2021/12/31 08:34:48;;;;;;;4.85;3.45;;;12.30;59.70;;;;;;5147068;27;34400;-76
2021/12/31 08:37:14;;;;;;;6.13;3.78;;;12.30;59.60;;;;;;5088141;27;34304;-76
2021/12/31 08:39:40;;;;;;;6.65;3.67;;;12.40;59.50;;;;;;5142024;27;35906;-76
2021/12/31 08:42:06;;;;;;;6.90;3.85;;;12.50;59.50;;;;;;5161758;27;34235;-76
2021/12/31 08:44:32;;;;;;;7.45;4.00;;;12.50;59.40;;;;;;5144011;27;34315;-76
2021/12/31 08:46:58;;;;;;;7.57;3.80;;;12.60;59.30;;;;;;5145068;27;34299;-76
2021/12/31 08:49:24;;;;;;;9.10;3.85;;;12.60;59.20;;;;;;5158624;27;36038;-76
2021/12/31 08:51:51;;;;;;;5.28;3.40;;;12.70;59.20;;;;;;5124902;27;34216;-76
2021/12/31 08:54:17;;;;;;;6.70;3.20;;;12.60;59.10;;;;;;5162923;27;33997;-76
2021/12/31 08:56:43;;;;;;;3.97;2.70;;;12.70;59.20;;;;;;5163012;27;34123;-76
2021/12/31 08:59:10;;;;;;;8.32;3.38;;;12.70;59.10;;;;;;5145281;27;34410;-76
2021/12/31 09:01:36;;;;;;;5.45;3.28;;;12.70;59.10;;;;;;5161296;27;34265;-76
2021/12/31 09:04:03;;;;;;;5.40;3.10;;;12.70;59.10;;;;;;5160997;27;34458;-76
2021/12/31 09:06:30;;;;;;;4.78;3.05;;;12.60;59.00;;;;;;5131233;27;34356;-77
2021/12/31 09:08:56;;;;;;;5.20;3.13;;;12.60;59.20;;;;;;5150473;27;34523;-76
2021/12/31 09:11:22;;;;;;;8.30;3.33;;;12.60;59.20;;;;;;5166635;27;34061;-76
2021/12/31 09:13:48;;;;;;;4.25;2.88;;;12.70;59.20;;;;;;5132422;27;34201;-76
2021/12/31 09:16:15;;;;;;;4.95;2.50;;;12.60;59.10;;;;;;5167761;27;34464;-77
2021/12/31 09:18:41;;;;;;;8.85;3.22;;;12.70;59.90;;;;;;5165488;27;36026;-76
2021/12/31 09:21:07;;;;;;;6.10;2.83;;;12.70;59.10;;;;;;5149264;27;34089;-76
2021/12/31 09:23:33;;;;;;;4.78;2.75;;;12.70;59.10;;;;;;5165815;27;34059;-76
2021/12/31 09:26:01;;;;;;;5.75;3.05;;;12.80;59.10;;;;;;5130762;27;34154;-76
2021/12/31 09:28:27;;;;;;;3.88;2.38;;;12.80;59.00;;;;;;5148194;27;34367;-76
2021/12/31 09:30:53;;;;;;;4.00;2.25;;;12.90;58.90;;;;;;5164659;27;34331;-76
2021/12/31 09:33:19;;;;;;;7.68;2.63;;;12.90;58.80;;;;;;5164903;27;34293;-76
2021/12/31 09:35:45;;;;;;;4.15;2.20;;;12.90;58.80;;;;;;5130590;27;34541;-76
2021/12/31 09:38:11;;;;;;;4.35;2.75;;;12.90;58.90;;;;;;5147639;27;36467;-76
2021/12/31 09:40:39;;;;;;;3.13;2.58;;;13.00;58.90;;;;;;5164935;27;34134;-76
2021/12/31 09:43:09;;;;;;;4.72;3.22;;;13.00;58.70;;;;;;5166847;27;34199;-76
2021/12/31 09:45:37;;;;;;;5.32;2.92;;;13.10;58.80;;;;;;5132604;27;34037;-76
2021/12/31 09:48:09;;;;;;;3.28;2.20;;;13.20;58.80;;;;;;5131921;27;34041;-77
2021/12/31 09:50:42;;;;;;;2.47;1.95;;;13.20;58.40;;;;;;5166765;27;34183;-77
2021/12/31 09:53:09;;;;;;;3.55;2.25;;;13.20;58.20;;;;;;5130155;27;34681;-76
2021/12/31 09:55:38;;;;;;;4.25;2.08;;;13.20;58.40;;;;;;5164497;27;34202;-77
2021/12/31 09:58:06;;;;;;;2.58;1.98;;;13.20;58.40;;;;;;5164775;27;35680;-77
2021/12/31 10:00:32;;;;;;;3.15;2.03;;;13.20;58.40;;;;;;5147882;27;34283;-76
2021/12/31 10:03:22;;;;;;;3.22;2.30;;;13.20;58.40;;;;;;5128847;27;34351;-76
2021/12/31 10:05:51;;;;;;;7.18;2.50;;;13.20;57.50;;;;;;5147334;27;34166;-76
2021/12/31 10:08:22;;;;;;;5.10;2.67;;;13.20;58.30;;;;;;5146674;27;35981;-76
2021/12/31 10:11:06;;;;;;;5.30;2.33;;;13.20;58.30;;;;;;5125736;27;34847;-76
2021/12/31 10:13:34;;;;;;;4.82;2.45;;;13.20;57.70;;;;;;5109133;27;34254;-76
2021/12/31 10:16:00;;;;;;;3.83;2.47;;;13.20;58.30;;;;;;5111565;27;34022;-76
2021/12/31 10:18:37;;;;;;;3.20;2.40;;;13.40;58.40;;;;;;5166030;27;36687;-77
2021/12/31 10:21:05;;;;;;;5.50;2.50;;;13.50;57.60;;;;;;5130613;27;34199;-76
2021/12/31 10:23:36;;;;;;;2.90;1.90;;;13.70;58.00;;;;;;5146801;27;34356;-77
2021/12/31 10:26:17;;;;;;;5.28;1.80;;;13.80;57.80;;;;;;5147755;27;34391;-76
2021/12/31 10:28:54;;;;;;;1.83;1.58;;;13.80;56.50;;;;;;5164086;27;36369;-76
2021/12/31 10:31:20;;;;;;;1.30;1.20;;;13.80;56.70;;;;;;5130109;27;34488;-76
2021/12/31 10:33:48;;;;;;;1.98;1.63;;;13.70;57.30;;;;;;5164065;27;34477;-76
2021/12/31 10:36:32;;;;;;;2.88;1.55;;;13.60;57.30;;;;;;5164042;27;34165;-76
2021/12/31 10:39:02;;;;;;;1.52;1.42;;;13.50;55.60;;;;;;5139791;27;35622;-76
2021/12/31 10:41:28;;;;;;;4.50;1.67;;;13.50;57.40;;;;;;5105489;27;34207;-76
2021/12/31 10:43:59;;;;;;;3.47;1.60;;;13.50;57.50;;;;;;5115726;27;34070;-77
2021/12/31 10:46:25;;;;;;;2.47;1.90;;;13.50;57.60;;;;;;5113074;27;34200;-76
2021/12/31 10:48:54;;;;;;;3.05;1.70;;;13.50;57.50;;;;;;5128600;27;36788;-76
2021/12/31 10:51:39;;;;;;;4.90;1.60;;;13.60;57.40;;;;;;5128898;27;34251;-76
2021/12/31 10:57:04;;;;;;;4.03;1.77;;;13.70;56.30;;;;;;5146466;27;34339;-76
2021/12/31 10:59:36;;;;;;;6.53;2.15;;;13.70;57.30;;;;;;5111372;27;36437;-76
2021/12/31 11:02:04;;;;;;;2.17;1.60;;;13.70;57.20;;;;;;5145856;27;34448;-76
2021/12/31 11:04:34;;;;;;;4.90;1.50;;;13.70;57.10;;;;;;5127497;27;34353;-76
2021/12/31 11:07:00;;;;;;;3.00;1.40;;;13.60;56.90;;;;;;5145362;27;34165;-76
2021/12/31 11:09:31;;;;;;;1.73;1.40;;;13.70;57.00;;;;;;5146423;27;35402;-76
2021/12/31 11:11:59;;;;;;;1.73;1.40;;;13.60;56.90;;;;;;5082631;27;34322;-76
2021/12/31 11:14:25;;;;;;;3.38;1.40;;;13.60;57.00;;;;;;5146266;27;34323;-76
2021/12/31 11:16:51;;;;;;;1.20;1.00;;;13.50;57.00;;;;;;5127309;27;34393;-76
2021/12/31 11:22:02;;;;;;;2.58;1.20;;;13.50;57.00;;;;;;5102451;27;34151;-76
2021/12/31 11:24:34;;;;;;;1.75;1.33;;;13.50;57.00;;;;;;5127838;27;34169;-76
2021/12/31 11:27:29;;;;;;;3.25;1.30;;;13.50;56.80;;;;;;5137837;27;34192;-76
2021/12/31 11:29:57;;;;;;;3.95;1.40;;;13.60;55.40;;;;;;5100450;27;36835;-76
2021/12/31 11:32:58;;;;;;;1.88;1.38;;;13.80;56.80;;;;;;5127076;27;34387;-76
2021/12/31 11:35:44;;;;;;;2.50;1.40;;;14.10;54.40;;;;;;5132619;27;35177;-76
2021/12/31 11:38:37;;;;;;;1.20;1.08;;;14.40;54.30;;;;;;5145839;27;34529;-76
2021/12/31 11:41:08;;;;;;;3.63;1.15;;;14.60;55.40;;;;;;5115348;27;35526;-76
2021/12/31 11:43:38;;;;;;;2.50;1.50;;;14.60;55.30;;;;;;5127103;27;34206;-76
2021/12/31 11:46:30;;;;;;;2.42;1.50;;;14.50;55.40;;;;;;5127649;27;34318;-76
2021/12/31 11:48:57;;;;;;;1.67;1.45;;;14.40;53.50;;;;;;5131788;27;34294;-76
2021/12/31 11:51:28;;;;;;;1.10;0.98;;;14.30;55.70;;;;;;5145585;27;35310;-76
2021/12/31 11:54:15;;;;;;;2.20;1.15;;;14.20;55.80;;;;;;5127537;27;34383;-76
2021/12/31 11:56:59;;;;;;;1.67;1.23;;;14.10;53.60;;;;;;5114055;27;34113;-75
2021/12/31 11:59:35;;;;;;;2.08;1.50;;;14.00;54.10;;;;;;5128921;27;34119;-76
2021/12/31 12:02:09;;;;;;;4.43;1.50;;;13.90;55.70;;;;;;5127189;27;35524;-76
2021/12/31 12:04:38;;;;;;;1.48;1.25;;;13.90;56.10;;;;;;5144838;27;34146;-76
2021/12/31 12:07:06;;;;;;;2.15;1.25;;;13.90;56.30;;;;;;5126391;27;34209;-76
2021/12/31 12:10:12;;;;;;;1.10;1.00;;;13.90;56.40;;;;;;5144597;27;34210;-76
2021/12/31 12:12:40;;;;;;;1.88;1.45;;;14.10;55.00;;;;;;5146842;27;36617;-75
2021/12/31 12:15:24;;;;;;;1.88;1.17;;;14.20;56.20;;;;;;5126919;27;34379;-75
2021/12/31 12:17:50;;;;;;;2.25;1.08;;;14.40;54.90;;;;;;5127068;27;34232;-76
2021/12/31 12:20:19;;;;;;;2.22;1.30;;;14.50;56.10;;;;;;5127409;27;34268;-76
2021/12/31 12:22:54;;;;;;;0.95;0.90;;;14.70;55.80;;;;;;5127199;27;36761;-76
2021/12/31 12:25:25;;;;;;;1.63;1.20;;;14.70;55.10;;;;;;5126562;27;34226;-76
2021/12/31 12:27:56;;;;;;;3.10;1.38;;;14.70;55.50;;;;;;5127896;27;34186;-76
2021/12/31 12:30:23;;;;;;;1.27;1.02;;;14.80;55.50;;;;;;5127332;27;34528;-76
2021/12/31 12:33:05;;;;;;;2.20;1.20;;;14.80;55.20;;;;;;5109299;27;36076;-77
2021/12/31 12:35:33;;;;;;;2.22;1.17;;;14.80;55.50;;;;;;5128154;27;34202;-77
2021/12/31 12:38:11;;;;;;;2.40;1.17;;;14.90;55.50;;;;;;5127128;27;34346;-77
2021/12/31 12:40:57;;;;;;;1.98;1.27;;;14.90;55.50;;;;;;5145036;27;34039;-77
2021/12/31 12:43:32;;;;;;;2.88;1.30;;;15.00;53.50;;;;;;5110481;27;35758;-76
2021/12/31 12:46:01;;;;;;;1.10;1.00;;;15.00;54.90;;;;;;5134273;27;34104;-76
2021/12/31 12:48:44;;;;;;;2.08;1.10;;;15.10;55.30;;;;;;5129206;27;34581;-77
2021/12/31 12:51:12;;;;;;;2.15;1.20;;;15.00;52.40;;;;;;5111685;27;34081;-76
2021/12/31 12:53:41;;;;;;;1.80;1.20;;;15.00;55.10;;;;;;5110529;27;35830;-75
2021/12/31 12:56:11;;;;;;;3.35;1.40;;;14.90;55.20;;;;;;5126695;27;34268;-76
2021/12/31 12:58:40;;;;;;;3.63;1.40;;;14.90;55.00;;;;;;5127512;27;34108;-76
2021/12/31 13:01:07;;;;;;;2.28;1.27;;;14.90;55.30;;;;;;5146692;27;34233;-76
2021/12/31 13:03:50;;;;;;;1.85;1.30;;;15.00;55.30;;;;;;5144921;27;35418;-76
2021/12/31 13:06:17;;;;;;;1.10;0.90;;;15.00;53.90;;;;;;5109014;27;34399;-76
2021/12/31 13:08:43;;;;;;;2.15;1.23;;;15.00;55.10;;;;;;5125544;27;34342;-76